createdAt,value
2019-05-19T00:02:07.865Z,17.77
2019-05-19T00:04:36.323Z,18.83
2019-05-19T00:07:04.788Z,17.87
2019-05-19T00:09:33.358Z,19.33
2019-05-19T00:12:01.827Z,18.63
2019-05-19T00:14:30.273Z,19.33
2019-05-19T00:16:58.707Z,20.27
2019-05-19T00:19:27.339Z,20.20
2019-05-19T00:21:55.854Z,17.30
2019-05-19T00:24:24.320Z,17.00
2019-05-19T00:26:52.744Z,18.90
2019-05-19T00:29:21.196Z,15.97
2019-05-19T00:31:49.633Z,14.07
2019-05-19T00:34:18.074Z,17.13
2019-05-19T00:36:46.547Z,15.73
2019-05-19T00:39:15.038Z,17.30
2019-05-19T00:41:43.501Z,16.00
2019-05-19T00:44:11.934Z,15.33
2019-05-19T00:46:40.405Z,15.77
2019-05-19T00:49:08.857Z,15.00
2019-05-19T00:51:37.548Z,13.23
2019-05-19T00:54:05.994Z,14.70
2019-05-19T00:56:34.741Z,13.97
2019-05-19T00:59:04.373Z,12.30
2019-05-19T01:01:32.843Z,15.43
2019-05-19T01:04:01.279Z,12.60
2019-05-19T01:06:29.741Z,11.70
2019-05-19T01:08:58.179Z,12.77
2019-05-19T01:11:26.621Z,12.60
2019-05-19T01:13:55.063Z,13.13
2019-05-19T01:16:23.505Z,13.57
2019-05-19T01:18:51.963Z,13.13
2019-05-19T01:21:21.049Z,11.90
2019-05-19T01:23:49.489Z,13.10
2019-05-19T01:26:17.944Z,11.30
2019-05-19T01:28:46.391Z,12.27
2019-05-19T01:31:14.855Z,10.97
2019-05-19T01:33:43.282Z,9.47
2019-05-19T01:36:11.731Z,12.93
2019-05-19T01:38:40.164Z,10.53
2019-05-19T01:41:08.614Z,13.20
2019-05-19T01:43:37.055Z,10.70
2019-05-19T01:46:05.521Z,11.70
2019-05-19T01:48:34.023Z,9.97
2019-05-19T01:51:02.478Z,10.17
2019-05-19T01:53:30.904Z,11.73
2019-05-19T01:55:59.357Z,9.17
2019-05-19T01:58:27.803Z,11.43
2019-05-19T02:00:56.271Z,11.93
2019-05-19T02:03:24.702Z,10.40
2019-05-19T02:05:53.149Z,10.47
2019-05-19T02:08:21.595Z,11.83
2019-05-19T02:10:50.039Z,9.97
2019-05-19T02:13:18.471Z,12.70
2019-05-19T02:15:46.927Z,11.83
2019-05-19T02:18:15.545Z,10.73
2019-05-19T02:20:45.102Z,9.97
2019-05-19T02:23:13.556Z,10.87
2019-05-19T02:25:41.997Z,10.00
2019-05-19T02:28:10.493Z,11.73
2019-05-19T02:30:38.989Z,8.80
2019-05-19T02:33:07.515Z,10.03
2019-05-19T02:35:35.956Z,9.97
2019-05-19T02:38:04.460Z,9.10
2019-05-19T02:40:33.848Z,11.17
2019-05-19T02:43:03.042Z,10.73
2019-05-19T02:45:34.088Z,13.07
2019-05-19T02:48:04.175Z,10.07
2019-05-19T02:50:50.825Z,10.77
2019-05-19T02:53:06.729Z,11.43
2019-05-19T02:55:35.431Z,10.23
2019-05-19T02:58:04.929Z,13.23
2019-05-19T03:00:35.861Z,12.13
2019-05-19T03:03:04.383Z,12.63
2019-05-19T03:05:32.818Z,10.93
2019-05-19T03:08:01.269Z,12.43
2019-05-19T03:10:29.696Z,10.37
2019-05-19T03:12:58.146Z,12.57
2019-05-19T03:15:26.579Z,12.17
2019-05-19T03:17:55.040Z,11.07
2019-05-19T03:20:23.554Z,10.07
2019-05-19T03:22:52.013Z,11.93
2019-05-19T03:25:20.434Z,11.40
2019-05-19T03:27:48.892Z,10.17
2019-05-19T03:30:36.805Z,10.97
2019-05-19T03:33:09.638Z,9.90
2019-05-19T03:35:38.091Z,9.93
2019-05-19T03:38:06.633Z,11.23
2019-05-19T03:40:35.150Z,11.77
2019-05-19T03:43:03.597Z,10.13
2019-05-19T03:45:32.030Z,11.10
2019-05-19T03:48:00.477Z,10.83
2019-05-19T03:50:28.921Z,10.27
2019-05-19T03:52:57.445Z,12.90
2019-05-19T03:55:25.884Z,10.50
2019-05-19T03:57:54.514Z,10.77
2019-05-19T04:00:23.099Z,10.60
2019-05-19T04:02:51.610Z,9.83
2019-05-19T04:05:20.056Z,10.13
2019-05-19T04:07:48.514Z,11.47
2019-05-19T04:10:17.287Z,10.93
2019-05-19T04:12:45.738Z,9.73
2019-05-19T04:15:14.416Z,10.40
2019-05-19T04:17:42.875Z,11.63
2019-05-19T04:20:11.563Z,10.20
2019-05-19T04:22:40.016Z,9.70
2019-05-19T04:25:08.522Z,12.33
2019-05-19T04:27:36.961Z,9.10
2019-05-19T04:30:06.950Z,13.17
2019-05-19T04:32:35.388Z,9.83
2019-05-19T04:35:05.387Z,10.17
2019-05-19T04:37:33.907Z,11.67
2019-05-19T04:40:02.702Z,10.73
2019-05-19T04:42:31.130Z,11.20
2019-05-19T04:44:59.595Z,9.80
2019-05-19T04:47:28.054Z,11.37
2019-05-19T04:49:56.506Z,10.83
2019-05-19T04:52:24.954Z,10.60
2019-05-19T04:54:53.477Z,13.07
2019-05-19T04:57:21.924Z,12.90
2019-05-19T04:59:50.385Z,12.10
2019-05-19T05:02:18.813Z,11.83
2019-05-19T05:04:47.273Z,10.77
2019-05-19T05:07:15.708Z,11.60
2019-05-19T05:09:44.158Z,11.53
2019-05-19T05:12:12.594Z,11.50
2019-05-19T05:14:41.037Z,13.10
2019-05-19T05:17:09.485Z,13.40
2019-05-19T05:19:38.007Z,12.17
2019-05-19T05:22:19.940Z,12.60
2019-05-19T05:24:36.733Z,12.70
2019-05-19T05:27:05.186Z,13.03
2019-05-19T05:29:33.636Z,12.90
2019-05-19T05:32:02.065Z,11.13
2019-05-19T05:34:30.537Z,10.97
2019-05-19T05:36:58.965Z,12.03
2019-05-19T05:39:27.427Z,12.53
2019-05-19T05:41:55.865Z,11.53
2019-05-19T05:44:24.320Z,11.73
2019-05-19T05:46:52.769Z,12.63
2019-05-19T05:49:21.236Z,11.33
2019-05-19T05:51:50.023Z,11.80
2019-05-19T05:54:18.474Z,11.23
2019-05-19T05:56:47.141Z,11.97
2019-05-19T05:59:15.606Z,12.23
2019-05-19T06:01:44.044Z,12.50
2019-05-19T06:04:12.491Z,12.80
2019-05-19T06:06:40.936Z,13.37
2019-05-19T06:09:09.388Z,11.27
2019-05-19T06:11:37.818Z,12.90
2019-05-19T06:14:06.307Z,11.93
2019-05-19T06:16:34.731Z,14.37
2019-05-19T06:19:03.538Z,11.90
2019-05-19T06:21:31.999Z,13.23
2019-05-19T06:24:00.432Z,12.40
2019-05-19T06:26:29.538Z,12.57
2019-05-19T06:28:58.115Z,11.40
2019-05-19T06:31:26.581Z,11.67
2019-05-19T06:33:55.022Z,11.47
2019-05-19T06:36:23.493Z,11.60
2019-05-19T06:38:51.930Z,13.03
2019-05-19T06:41:20.408Z,11.80
2019-05-19T06:43:48.917Z,12.07
2019-05-19T06:46:17.378Z,12.10
2019-05-19T06:48:45.841Z,12.27
2019-05-19T06:51:14.373Z,9.90
2019-05-19T06:53:42.872Z,11.67
2019-05-19T06:56:11.322Z,11.43
2019-05-19T06:58:39.761Z,10.80
2019-05-19T07:01:08.210Z,10.13
2019-05-19T07:03:36.645Z,11.33
2019-05-19T07:06:05.107Z,11.63
2019-05-19T07:08:33.560Z,12.17
2019-05-19T07:11:02.020Z,12.07
2019-05-19T07:13:30.446Z,10.43
2019-05-19T07:15:58.913Z,10.30
2019-05-19T07:18:27.358Z,11.33
2019-05-19T07:20:55.818Z,11.10
2019-05-19T07:23:28.267Z,9.07
2019-05-19T07:25:54.433Z,8.90
2019-05-19T07:28:22.865Z,9.53
2019-05-19T07:30:51.308Z,9.70
2019-05-19T07:33:19.737Z,8.30
2019-05-19T07:35:48.181Z,8.30
2019-05-19T07:38:16.611Z,8.47
2019-05-19T07:40:45.075Z,9.47
2019-05-19T07:43:13.590Z,9.57
2019-05-19T07:45:42.142Z,7.73
2019-05-19T07:48:10.561Z,8.67
2019-05-19T07:50:39.023Z,7.47
2019-05-19T07:53:07.524Z,8.60
2019-05-19T07:55:35.984Z,6.90
2019-05-19T07:58:04.405Z,6.40
2019-05-19T08:00:32.927Z,6.33
2019-05-19T08:03:01.359Z,8.00
2019-05-19T08:05:29.795Z,5.87
2019-05-19T08:07:58.246Z,5.90
2019-05-19T08:10:26.670Z,7.40
2019-05-19T08:12:55.120Z,7.13
2019-05-19T08:15:23.549Z,6.03
2019-05-19T08:17:52.010Z,6.07
2019-05-19T08:20:20.447Z,8.13
2019-05-19T08:22:51.305Z,5.70
2019-05-19T08:25:19.064Z,7.30
2019-05-19T08:27:47.506Z,7.40
2019-05-19T08:30:16.178Z,5.43
2019-05-19T08:32:44.636Z,5.63
2019-05-19T08:35:13.146Z,6.40
2019-05-19T08:37:41.611Z,5.97
2019-05-19T08:40:10.143Z,7.23
2019-05-19T08:42:38.641Z,6.00
2019-05-19T08:45:07.892Z,6.53
2019-05-19T08:47:36.344Z,7.00
2019-05-19T08:50:07.313Z,6.77
2019-05-19T08:52:35.759Z,7.37
2019-05-19T08:55:05.228Z,6.80
2019-05-19T08:57:33.700Z,7.77
2019-05-19T09:00:02.192Z,6.10
2019-05-19T09:02:30.722Z,9.40
2019-05-19T09:04:59.157Z,6.67
2019-05-19T09:07:27.602Z,8.30
2019-05-19T09:09:56.047Z,6.03
2019-05-19T09:12:24.495Z,5.93
2019-05-19T09:14:52.932Z,7.87
2019-05-19T09:17:21.386Z,6.73
2019-05-19T09:19:49.883Z,5.57
2019-05-19T09:22:18.380Z,5.83
2019-05-19T09:24:46.809Z,5.37
2019-05-19T09:27:15.260Z,5.33
2019-05-19T09:29:43.702Z,4.80
2019-05-19T09:32:12.154Z,4.80
2019-05-19T09:34:40.589Z,5.20
2019-05-19T09:37:09.046Z,4.60
2019-05-19T09:39:37.555Z,4.83
2019-05-19T09:42:06.011Z,4.33
2019-05-19T09:44:34.441Z,4.30
2019-05-19T09:47:02.897Z,3.77
2019-05-19T09:49:34.782Z,3.87
2019-05-19T09:52:04.771Z,3.90
2019-05-19T09:54:44.119Z,3.60
2019-05-19T09:57:03.447Z,4.10
2019-05-19T09:59:31.893Z,3.90
2019-05-19T10:02:00.340Z,4.30
2019-05-19T10:04:28.793Z,4.20
2019-05-19T10:06:57.267Z,4.40
2019-05-19T10:09:40.745Z,4.03
2019-05-19T10:12:09.658Z,4.53
2019-05-19T10:14:38.112Z,7.83
2019-05-19T10:17:06.618Z,4.97
2019-05-19T10:19:35.065Z,5.27
2019-05-19T10:22:03.564Z,4.90
2019-05-19T10:24:32.090Z,5.07
2019-05-19T10:27:01.392Z,4.60
2019-05-19T10:29:29.844Z,4.93
2019-05-19T10:31:58.296Z,5.27
2019-05-19T10:34:26.834Z,5.03
2019-05-19T10:36:55.276Z,5.03
2019-05-19T10:39:23.748Z,5.20
2019-05-19T10:41:52.197Z,4.97
2019-05-19T10:44:20.706Z,5.47
2019-05-19T10:46:49.137Z,5.37
2019-05-19T10:49:17.586Z,4.80
2019-05-19T10:51:46.027Z,5.27
2019-05-19T10:54:14.471Z,6.20
2019-05-19T10:56:42.898Z,5.10
2019-05-19T10:59:11.349Z,5.33
2019-05-19T11:01:39.777Z,4.93
2019-05-19T11:04:08.237Z,5.30
2019-05-19T11:06:36.731Z,4.83
2019-05-19T11:09:07.323Z,4.93
2019-05-19T11:11:36.120Z,5.23
2019-05-19T11:14:04.716Z,5.20
2019-05-19T11:16:33.202Z,5.20
2019-05-19T11:19:01.737Z,5.63
2019-05-19T11:21:30.179Z,5.83
2019-05-19T11:23:58.671Z,4.83
2019-05-19T11:26:27.111Z,6.00
2019-05-19T11:28:55.564Z,6.37
2019-05-19T11:31:24.001Z,5.37
2019-05-19T11:33:52.451Z,5.97
2019-05-19T11:36:20.895Z,5.83
2019-05-19T11:38:49.354Z,4.60
2019-05-19T11:41:17.792Z,5.17
2019-05-19T11:43:46.330Z,5.33
2019-05-19T11:46:14.787Z,5.03
2019-05-19T11:48:43.223Z,5.97
2019-05-19T11:51:11.653Z,5.30
2019-05-19T11:53:40.111Z,5.57
2019-05-19T11:56:11.385Z,5.27
2019-05-19T11:58:38.706Z,6.27
2019-05-19T12:01:07.174Z,6.03
2019-05-19T12:03:35.645Z,5.50
2019-05-19T12:06:04.164Z,5.70
2019-05-19T12:08:32.595Z,5.63
2019-05-19T12:11:01.040Z,5.93
2019-05-19T12:13:29.475Z,8.07
2019-05-19T12:15:57.935Z,6.37
2019-05-19T12:18:26.365Z,5.93
2019-05-19T12:20:54.810Z,6.20
2019-05-19T12:23:23.249Z,6.20
2019-05-19T12:25:51.681Z,6.67
2019-05-19T12:28:20.158Z,5.83
2019-05-19T12:30:48.619Z,7.33
2019-05-19T12:33:17.122Z,6.73
2019-05-19T12:35:45.589Z,6.27
2019-05-19T12:38:14.025Z,6.60
2019-05-19T12:40:42.486Z,6.27
2019-05-19T12:43:10.946Z,8.33
2019-05-19T12:45:39.470Z,5.77
2019-05-19T12:48:08.049Z,6.43
2019-05-19T12:50:36.498Z,6.43
2019-05-19T12:53:04.937Z,7.13
2019-05-19T12:55:33.448Z,6.77
2019-05-19T12:58:01.881Z,6.40
2019-05-19T13:00:30.362Z,6.20
2019-05-19T13:02:58.793Z,6.50
2019-05-19T13:05:27.256Z,6.73
2019-05-19T13:07:55.758Z,6.20
2019-05-19T13:10:24.202Z,7.10
2019-05-19T13:12:52.670Z,6.73
2019-05-19T13:15:22.746Z,6.20
2019-05-19T13:17:51.351Z,6.47
2019-05-19T13:20:20.384Z,6.13
2019-05-19T13:22:48.813Z,6.27
2019-05-19T13:25:17.258Z,5.67
2019-05-19T13:27:45.695Z,6.67
2019-05-19T13:30:14.308Z,7.27
2019-05-19T13:32:42.742Z,7.07
2019-05-19T13:35:11.267Z,7.90
2019-05-19T13:37:39.689Z,6.50
2019-05-19T13:40:08.969Z,5.70
2019-05-19T13:42:37.475Z,7.90
2019-05-19T13:45:06.759Z,5.63
2019-05-19T13:47:35.217Z,5.50
2019-05-19T13:50:05.480Z,6.37
2019-05-19T13:52:33.946Z,6.20
2019-05-19T13:55:02.372Z,6.40
2019-05-19T13:57:32.008Z,7.77
2019-05-19T14:00:00.503Z,7.07
2019-05-19T14:02:28.959Z,6.20
2019-05-19T14:04:57.388Z,6.17
2019-05-19T14:07:25.853Z,6.17
2019-05-19T14:09:54.508Z,6.83
2019-05-19T14:12:22.989Z,6.90
2019-05-19T14:14:51.441Z,7.40
2019-05-19T14:17:19.967Z,6.87
2019-05-19T14:19:48.402Z,7.27
2019-05-19T14:22:16.849Z,7.03
2019-05-19T14:24:45.287Z,6.83
2019-05-19T14:27:27.360Z,6.73
2019-05-19T14:29:43.971Z,6.90
2019-05-19T14:32:12.414Z,6.80
2019-05-19T14:34:40.846Z,6.70
2019-05-19T14:37:09.336Z,7.93
2019-05-19T14:39:37.765Z,5.77
2019-05-19T14:42:07.879Z,6.17
2019-05-19T14:44:36.385Z,6.10
2019-05-19T14:47:04.832Z,5.23
2019-05-19T14:49:33.265Z,5.70
2019-05-19T14:52:01.720Z,6.13
2019-05-19T14:54:30.250Z,7.20
2019-05-19T14:56:58.694Z,5.47
2019-05-19T14:59:27.130Z,5.53
2019-05-19T15:01:55.666Z,5.57
2019-05-19T15:04:24.111Z,5.70
2019-05-19T15:06:52.633Z,5.47
2019-05-19T15:09:21.065Z,5.97
2019-05-19T15:11:49.514Z,5.63
2019-05-19T15:14:17.974Z,9.27
2019-05-19T15:16:46.411Z,7.10
2019-05-19T15:19:14.846Z,6.90
2019-05-19T15:21:43.296Z,8.13
2019-05-19T15:24:13.517Z,6.57
2019-05-19T15:26:41.970Z,6.27
2019-05-19T15:29:10.535Z,7.30
2019-05-19T15:31:40.643Z,7.57
2019-05-19T15:34:09.084Z,8.67
2019-05-19T15:36:37.591Z,6.00
2019-05-19T15:39:06.568Z,7.57
2019-05-19T15:41:35.165Z,7.43
2019-05-19T15:44:22.117Z,6.50
2019-05-19T15:46:50.742Z,6.83
2019-05-19T15:49:19.182Z,6.50
2019-05-19T15:52:00.195Z,7.37
2019-05-19T15:54:17.929Z,7.00
2019-05-19T15:56:46.437Z,6.73
2019-05-19T15:59:14.979Z,6.07
2019-05-19T16:01:43.548Z,7.00
2019-05-19T16:04:11.993Z,6.90
2019-05-19T16:06:40.428Z,7.23
2019-05-19T16:09:08.995Z,6.97
2019-05-19T16:11:37.518Z,6.40
2019-05-19T16:14:06.023Z,7.07
2019-05-19T16:16:34.700Z,7.20
2019-05-19T16:19:03.176Z,6.40
2019-05-19T16:21:31.758Z,6.60
2019-05-19T16:24:00.217Z,7.87
2019-05-19T16:26:28.893Z,6.93
2019-05-19T16:28:57.345Z,7.50
2019-05-19T16:31:25.781Z,6.73
2019-05-19T16:33:54.228Z,7.17
2019-05-19T16:36:22.711Z,7.10
2019-05-19T16:38:51.208Z,6.83
2019-05-19T16:41:19.715Z,6.83
2019-05-19T16:43:48.168Z,7.67
2019-05-19T16:46:16.598Z,7.33
2019-05-19T16:48:45.141Z,7.50
2019-05-19T16:51:13.570Z,7.80
2019-05-19T16:53:42.981Z,8.00
2019-05-19T16:56:11.421Z,7.53
2019-05-19T16:58:45.428Z,7.97
2019-05-19T17:01:10.063Z,8.60
2019-05-19T17:03:38.504Z,8.10
2019-05-19T17:06:07.050Z,8.50
2019-05-19T17:08:35.501Z,8.93
2019-05-19T17:11:17.555Z,7.63
2019-05-19T17:13:34.126Z,9.00
2019-05-19T17:16:02.564Z,8.67
2019-05-19T17:18:31.019Z,8.90
2019-05-19T17:20:59.511Z,9.00
2019-05-19T17:23:28.011Z,9.67
2019-05-19T17:25:56.442Z,9.20
2019-05-19T17:28:24.895Z,9.40
2019-05-19T17:30:53.330Z,11.60
2019-05-19T17:33:21.783Z,9.70
2019-05-19T17:35:50.225Z,10.87
2019-05-19T17:38:18.694Z,11.53
2019-05-19T17:40:47.139Z,12.87
2019-05-19T17:43:15.582Z,10.57
2019-05-19T17:45:44.025Z,11.37
2019-05-19T17:48:25.623Z,11.10
2019-05-19T17:50:44.894Z,11.17
2019-05-19T17:53:13.558Z,10.60
2019-05-19T17:55:43.307Z,10.70
2019-05-19T17:58:11.736Z,11.67
2019-05-19T18:00:41.664Z,10.10
2019-05-19T18:03:10.624Z,11.10
2019-05-19T18:05:39.169Z,9.93
2019-05-19T18:08:07.691Z,10.83
2019-05-19T18:10:36.194Z,11.27
2019-05-19T18:13:04.698Z,10.50
2019-05-19T18:15:33.156Z,10.57
2019-05-19T18:18:01.624Z,10.20
2019-05-19T18:20:30.143Z,10.13
2019-05-19T18:23:03.697Z,10.37
2019-05-19T18:25:29.463Z,10.57
2019-05-19T18:27:57.943Z,9.47
2019-05-19T18:30:26.487Z,11.57
2019-05-19T18:32:54.927Z,10.27
2019-05-19T18:35:23.380Z,9.90
2019-05-19T18:37:51.815Z,9.70
2019-05-19T18:40:20.537Z,8.93
2019-05-19T18:42:48.970Z,8.87
2019-05-19T18:45:17.490Z,9.47
2019-05-19T18:47:45.927Z,9.20
2019-05-19T18:50:14.549Z,8.93
2019-05-19T18:52:43.049Z,9.27
2019-05-19T18:55:11.656Z,8.13
2019-05-19T18:57:40.099Z,7.87
2019-05-19T19:00:09.088Z,8.23
2019-05-19T19:02:37.575Z,7.90
2019-05-19T19:05:07.070Z,7.40
2019-05-19T19:07:48.878Z,7.43
2019-05-19T19:10:17.343Z,7.77
2019-05-19T19:12:45.762Z,7.63
2019-05-19T19:15:14.220Z,7.07
2019-05-19T19:17:42.918Z,9.00
2019-05-19T19:20:11.901Z,6.73
2019-05-19T19:22:40.330Z,7.17
2019-05-19T19:25:08.909Z,6.67
2019-05-19T19:27:37.357Z,6.57
2019-05-19T19:30:09.182Z,7.10
2019-05-19T19:32:37.613Z,7.90
2019-05-19T19:35:07.107Z,8.33
2019-05-19T19:37:35.550Z,7.43
2019-05-19T19:40:06.638Z,7.47
2019-05-19T19:42:35.086Z,7.63
2019-05-19T19:45:04.173Z,7.37
2019-05-19T19:47:32.675Z,8.57
2019-05-19T19:50:01.141Z,8.77
2019-05-19T19:52:29.566Z,9.10
2019-05-19T19:54:58.022Z,8.60
2019-05-19T19:57:26.531Z,8.97
2019-05-19T19:59:54.956Z,8.33
2019-05-19T20:02:23.407Z,9.87
2019-05-19T20:04:51.846Z,8.57
2019-05-19T20:07:20.328Z,8.27
2019-05-19T20:09:48.755Z,8.67
2019-05-19T20:12:17.217Z,8.50
2019-05-19T20:14:45.656Z,8.73
2019-05-19T20:17:14.099Z,8.87
2019-05-19T20:19:42.535Z,8.73
2019-05-19T20:22:10.991Z,9.40
2019-05-19T20:24:39.438Z,9.93
2019-05-19T20:27:07.884Z,9.57
2019-05-19T20:29:36.326Z,10.30
2019-05-19T20:32:04.858Z,11.53
2019-05-19T20:34:33.286Z,12.77
2019-05-19T20:37:01.767Z,12.07
2019-05-19T20:39:30.211Z,12.10
2019-05-19T20:41:58.678Z,12.97
2019-05-19T20:44:27.117Z,12.67
2019-05-19T20:46:55.571Z,12.53
2019-05-19T20:49:24.022Z,11.50
2019-05-19T20:51:52.478Z,12.53
2019-05-19T20:54:20.925Z,15.10
2019-05-19T20:56:49.386Z,13.43
2019-05-19T20:59:17.835Z,12.87
2019-05-19T21:01:46.286Z,11.47
2019-05-19T21:04:14.713Z,10.40
2019-05-19T21:06:43.165Z,11.53
2019-05-19T21:09:11.610Z,12.87
2019-05-19T21:11:40.056Z,11.33
2019-05-19T21:14:08.502Z,12.10
2019-05-19T21:16:36.968Z,11.37
2019-05-19T21:19:05.410Z,10.33
2019-05-19T21:21:33.848Z,10.73
2019-05-19T21:24:02.284Z,11.10
2019-05-19T21:26:30.725Z,10.80
2019-05-19T21:28:59.155Z,10.77
2019-05-19T21:31:27.612Z,11.20
2019-05-19T21:33:56.042Z,10.87
2019-05-19T21:36:24.489Z,11.10
2019-05-19T21:38:52.942Z,11.83
2019-05-19T21:41:21.405Z,11.53
2019-05-19T21:43:49.862Z,10.83
2019-05-19T21:46:18.301Z,11.23
2019-05-19T21:48:46.750Z,11.23
2019-05-19T21:51:15.192Z,10.60
2019-05-19T21:53:43.641Z,11.57
2019-05-19T21:56:12.078Z,14.57
2019-05-19T21:58:40.561Z,12.50
2019-05-19T22:01:22.188Z,13.00
2019-05-19T22:03:39.549Z,12.93
2019-05-19T22:06:08.169Z,13.47
2019-05-19T22:08:36.693Z,11.83
2019-05-19T22:11:05.156Z,11.57
2019-05-19T22:13:33.636Z,12.73
2019-05-19T22:16:12.216Z,12.23
2019-05-19T22:18:32.335Z,12.20
2019-05-19T22:21:00.786Z,12.23
2019-05-19T22:23:29.254Z,12.37
2019-05-19T22:25:57.689Z,13.13
2019-05-19T22:28:26.162Z,13.10
2019-05-19T22:30:54.631Z,13.47
2019-05-19T22:33:23.140Z,13.33
2019-05-19T22:35:51.589Z,12.83
2019-05-19T22:38:20.039Z,14.17
2019-05-19T22:40:48.505Z,12.67
2019-05-19T22:43:16.958Z,13.30
2019-05-19T22:45:45.397Z,15.63
2019-05-19T22:48:13.862Z,13.77
2019-05-19T22:50:42.306Z,13.20
2019-05-19T22:53:10.763Z,13.93
2019-05-19T22:55:39.224Z,14.80
2019-05-19T22:58:07.685Z,13.03
2019-05-19T23:00:36.131Z,13.27
2019-05-19T23:03:04.574Z,13.13
2019-05-19T23:05:33.017Z,14.13
2019-05-19T23:08:01.466Z,14.70
2019-05-19T23:10:29.924Z,13.57
2019-05-19T23:12:58.386Z,13.90
2019-05-19T23:15:26.827Z,14.07
2019-05-19T23:17:55.264Z,13.80
2019-05-19T23:20:23.791Z,15.30
2019-05-19T23:22:52.234Z,14.33
2019-05-19T23:25:20.682Z,14.07
2019-05-19T23:27:49.119Z,14.60
2019-05-19T23:30:17.575Z,14.63
2019-05-19T23:32:46.005Z,13.57
2019-05-19T23:35:14.452Z,13.97
2019-05-19T23:37:42.894Z,14.33
2019-05-19T23:40:11.527Z,14.00
2019-05-19T23:42:40.034Z,14.77
2019-05-19T23:45:08.830Z,14.67
2019-05-19T23:47:37.329Z,16.50
2019-05-19T23:50:06.376Z,14.87
2019-05-19T23:52:34.815Z,14.47
2019-05-19T23:55:04.609Z,13.73
2019-05-19T23:57:33.033Z,14.17
